This is the latest recevied weather packets stored in our database for station/object AJ7DN. If no packets are shown the sender has not sent any weather packets the latest 1 day(s).
| Time | Temp. | Humidity | Pressure | Rain* | Wind** | Luminosity | Snow |
|---|---|---|---|---|---|---|---|
| 1778033718 | 18.33° C | 71% | 1019.9 hPa | 0 mm | 0 m/s | 34 W/m² | - |
| 1778033415 | 18.33° C | 69% | 1019.6 hPa | 0 mm | 0 m/s | 30 W/m² | - |
| 1778033112 | 18.33° C | 70% | 1019.5 hPa | 0 mm | 0 m/s | 26 W/m² | - |
| 1778032810 | 18.33° C | 69% | 1019.5 hPa | 0 mm | 0 m/s | 25 W/m² | - |
| 1778032507 | 18.33° C | 68% | 1019.4 hPa | 0 mm | 0.45 m/s, 226° | 26 W/m² | - |
| 1778032204 | 18.33° C | 68% | 1019.5 hPa | 0 mm | 0 m/s | 29 W/m² | - |
| 1778031901 | 18.33° C | 69% | 1019.5 hPa | 0 mm | 0 m/s | 36 W/m² | - |
| 1778031597 | 18.89° C | 68% | 1019.5 hPa | 0 mm | 0 m/s | 40 W/m² | - |
| 1778031295 | 18.89° C | 67% | 1019.5 hPa | 0 mm | 0 m/s | 39 W/m² | - |
| 1778030991 | 18.89° C | 67% | 1019.4 hPa | 0 mm | 0 m/s | 41 W/m² | - |
| 1778030687 | 18.89° C | 67% | 1019.8 hPa | 0 mm | 0 m/s | 46 W/m² | - |
| 1778030384 | 18.89° C | 68% | 1019.5 hPa | 0 mm | 0 m/s | 49 W/m² | - |
| 1778030082 | 18.89° C | 67% | 1019.7 hPa | 0 mm | 0 m/s | 52 W/m² | - |
| 1778029779 | 18.89° C | 68% | 1019.4 hPa | 0 mm | 0 m/s | 58 W/m² | - |
| 1778029478 | 18.89° C | 67% | 1019.5 hPa | 0 mm | 0 m/s | 54 W/m² | - |
| 1778029173 | 18.89° C | 67% | 1019.5 hPa | 0 mm | 0 m/s | 55 W/m² | - |
| 1778028872 | 19.44° C | 65% | 1019.7 hPa | 0 mm | 0 m/s | 70 W/m² | - |
| 1778028566 | 19.44° C | 64% | 1019.4 hPa | 0 mm | 0 m/s | 76 W/m² | - |
| 1778028265 | 20° C | 63% | 1019.5 hPa | 0 mm | 0 m/s | 95 W/m² | - |
| 1778027960 | 20° C | 65% | 1019.3 hPa | 0 mm | 0 m/s | 99 W/m² | - |
| 1778027657 | 20° C | 63% | 1019.7 hPa | 0 mm | 0 m/s | 115 W/m² | - |
| 1778027354 | 20.56° C | 61% | 1019.9 hPa | 0 mm | 0 m/s | 262 W/m² | - |
| 1778027050 | 20° C | 64% | 1019.7 hPa | 0 mm | 0 m/s | 223 W/m² | - |
| 1778026745 | 19.44° C | 64% | 1019.6 hPa | 0 mm | 0 m/s | 280 W/m² | - |
| 1778026442 | 18.89° C | 65% | 1019.9 hPa | 0 mm | 0 m/s | 155 W/m² | - |
* Rain latest hour (hover to see other rain measurements)
** Current wind speed in m/s (hover to see current wind gust speed)